Time;durP1;ratioP1;P1;durP2;ratioP2;P2;SDS_P1;SDS_P2;PMS_P1;PMS_P2;Temp;Humidity;BMP_temperature;BMP_pressure;BME280_temperature;BME280_humidity;BME280_pressure;Samples;Min_cycle;Max_cycle;Signal;HPM_P1;HPM_P2
2022/02/07 00:00:35;;;;;;;4.85;3.33;;;;;;;7.33;64.07;97683.44;5026162;28;20053;-73
2022/02/07 00:03:13;;;;;;;2.85;2.30;;;;;;;7.35;63.89;97708.56;5028778;28;20161;-74
2022/02/07 00:05:40;;;;;;;4.07;2.88;;;;;;;7.40;63.44;97698.44;5027743;28;20077;-75
2022/02/07 00:08:10;;;;;;;6.05;3.22;;;;;;;7.40;63.49;97706.31;5028595;28;20045;-71
2022/02/07 00:10:38;;;;;;;4.20;2.20;;;;;;;7.45;62.97;97716.34;5028904;28;20474;-73
2022/02/07 00:13:05;;;;;;;3.40;2.75;;;;;;;7.42;62.67;97706.16;5025296;28;20489;-76
2022/02/07 00:15:34;;;;;;;3.38;2.70;;;;;;;7.56;62.51;97712.63;5026407;28;20067;-73
2022/02/07 00:18:02;;;;;;;4.00;2.97;;;;;;;7.53;62.19;97726.09;5028163;28;20060;-76
2022/02/07 00:20:30;;;;;;;3.33;2.30;;;;;;;7.55;61.99;97739.91;5026249;28;20728;-73
2022/02/07 00:22:57;;;;;;;4.18;1.92;;;;;;;7.57;61.84;97740.56;5027396;28;20052;-75
2022/02/07 00:25:26;;;;;;;3.70;2.42;;;;;;;7.56;61.85;97745.00;5027225;28;20046;-71
2022/02/07 00:27:53;;;;;;;5.40;2.80;;;;;;;7.55;61.67;97737.28;5026715;28;20058;-72
2022/02/07 00:30:22;;;;;;;6.35;2.88;;;;;;;7.50;61.63;97760.53;5027128;28;20584;-75
2022/02/07 00:32:50;;;;;;;3.83;2.53;;;;;;;7.56;61.61;97773.06;5028396;28;20124;-78
2022/02/07 00:35:21;;;;;;;4.75;2.83;;;;;;;7.47;60.75;97770.38;5027566;28;20057;-72
2022/02/07 00:37:53;;;;;;;3.45;1.90;;;;;;;7.54;60.75;97759.25;5027867;28;20045;-74
2022/02/07 00:40:43;;;;;;;4.25;2.88;;;;;;;7.38;60.22;97767.81;5027454;28;20050;-72
2022/02/07 00:46:05;;;;;;;5.68;3.08;;;;;;;7.28;59.85;97762.69;4946864;29;20059;-71
2022/02/07 00:48:33;;;;;;;2.20;1.77;;;;;;;7.17;60.06;97753.22;4946678;29;20134;-78
2022/02/07 00:51:00;;;;;;;2.83;2.17;;;;;;;7.13;60.20;97759.75;4945972;29;20940;-70
2022/02/07 00:53:27;;;;;;;1.90;1.25;;;;;;;7.17;59.94;97770.78;4948354;29;20158;-76
2022/02/07 00:55:55;;;;;;;1.92;1.80;;;;;;;7.12;59.75;97770.41;4946640;29;20531;-72
2022/02/07 00:58:23;;;;;;;1.77;1.55;;;;;;;7.10;59.89;97767.13;4948561;29;20055;-76
2022/02/07 01:00:52;;;;;;;3.03;1.92;;;;;;;7.13;59.79;97790.41;4947917;29;20130;-72
2022/02/07 01:03:19;;;;;;;2.22;1.30;;;;;;;7.14;59.41;97786.84;4950937;28;20058;-73
2022/02/07 01:05:46;;;;;;;1.98;1.52;;;;;;;7.08;59.36;97780.38;4956418;29;20070;-74
2022/02/07 01:08:15;;;;;;;2.97;1.65;;;;;;;7.01;59.09;97782.78;4956776;29;20047;-74
2022/02/07 01:10:51;;;;;;;2.30;1.65;;;;;;;6.93;58.88;97785.31;4960487;29;20062;-73
2022/02/07 01:13:28;;;;;;;2.58;1.73;;;;;;;6.96;59.11;97781.56;4960222;29;20463;-72
2022/02/07 01:16:07;;;;;;;3.05;1.50;;;;;;;6.96;58.77;97789.44;4960857;29;20106;-75
2022/02/07 01:49:24;;;;;;;1.40;1.00;;;;;;;6.59;58.40;97796.44;4986082;28;20490;-73
2022/02/07 01:54:42;;;;;;;0.68;0.60;;;;;;;6.46;58.37;97791.56;4909450;29;20650;-75
2022/02/07 01:57:12;;;;;;;1.55;1.27;;;;;;;6.31;58.82;97780.69;4909420;29;20148;-72
2022/02/07 01:59:42;;;;;;;1.30;1.15;;;;;;;6.25;59.07;97791.78;4966989;28;20051;-77
2022/02/07 02:02:10;;;;;;;1.38;1.10;;;;;;;6.32;58.99;97799.91;4952042;28;20229;-73
2022/02/07 02:04:38;;;;;;;2.53;1.30;;;;;;;6.40;58.79;97804.41;4968051;28;20133;-77
2022/02/07 02:07:06;;;;;;;2.83;1.33;;;;;;;6.47;58.84;97806.28;4969591;28;20051;-72
2022/02/07 02:09:34;;;;;;;4.72;2.05;;;;;;;6.45;58.77;97804.81;4971630;28;20146;-69
2022/02/07 02:12:03;;;;;;;2.75;1.35;;;;;;;6.42;58.86;97808.53;4966668;28;20043;-71
2022/02/07 02:14:47;;;;;;;3.53;1.70;;;;;;;6.36;59.29;97800.44;4966889;28;20498;-71
2022/02/07 02:34:27;;;;;;;5.73;2.00;;;;;;;6.54;59.10;97809.16;4911971;29;20055;-74
2022/02/07 02:37:08;;;;;;;4.25;2.45;;;;;;;6.63;59.05;97805.66;4911158;29;20288;-71
2022/02/07 02:47:46;;;;;;;2.05;1.60;;;;;;;6.77;59.10;97816.63;4908334;29;20052;-73
2022/02/07 02:50:28;;;;;;;5.72;2.65;;;;;;;6.75;59.25;97819.38;4910270;28;20120;-73
2022/02/07 02:52:55;;;;;;;3.53;2.70;;;;;;;6.58;59.58;97810.53;4896210;29;20059;-74
2022/02/07 02:55:27;;;;;;;5.50;2.00;;;;;;;6.60;59.95;97821.69;4894966;29;20099;-73
2022/02/07 02:57:54;;;;;;;3.92;2.60;;;;;;;6.54;59.93;97811.78;4942975;29;20047;-72
2022/02/07 03:00:22;;;;;;;2.55;2.10;;;;;;;6.57;59.84;97816.75;4981118;28;20087;-76
2022/02/07 03:02:49;;;;;;;3.78;2.50;;;;;;;6.56;59.87;97830.81;5008189;28;20052;-73
2022/02/07 03:05:17;;;;;;;3.88;1.88;;;;;;;6.50;60.01;97828.78;5029888;28;20048;-78
2022/02/07 03:07:44;;;;;;;3.28;2.40;;;;;;;6.51;59.97;97838.28;5029594;28;20053;-77
2022/02/07 03:10:22;;;;;;;5.65;2.22;;;;;;;6.55;60.12;97837.03;5029916;28;20497;-71
2022/02/07 03:13:04;;;;;;;3.67;1.95;;;;;;;6.61;60.01;97841.72;5027920;28;20041;-75
2022/02/07 03:18:15;;;;;;;4.95;2.65;;;;;;;6.68;59.72;97845.41;5030834;28;20072;-71
2022/02/07 03:20:42;;;;;;;3.97;2.08;;;;;;;6.64;60.03;97846.66;5029801;28;20055;-73
2022/02/07 03:23:09;;;;;;;8.70;3.00;;;;;;;6.66;60.11;97851.75;5030025;28;20049;-78
2022/02/07 03:25:36;;;;;;;4.35;2.35;;;;;;;6.66;60.00;97857.00;5029437;28;20048;-74
2022/02/07 03:28:06;;;;;;;7.25;2.30;;;;;;;6.58;60.10;97865.59;5030950;28;20470;-74
2022/02/07 03:30:35;;;;;;;4.85;2.40;;;;;;;6.55;60.36;97875.56;5030081;28;20546;-77
2022/02/07 03:33:02;;;;;;;3.83;2.67;;;;;;;6.56;60.33;97867.53;5030664;28;20049;-74
2022/02/07 03:35:29;;;;;;;4.15;2.20;;;;;;;6.59;60.31;97864.63;5029071;28;20053;-74
2022/02/07 03:37:56;;;;;;;7.60;2.22;;;;;;;6.65;60.27;97865.84;5030732;28;20141;-76
2022/02/07 03:40:24;;;;;;;4.10;2.83;;;;;;;6.67;60.16;97861.28;5030174;28;20437;-73
2022/02/07 03:42:51;;;;;;;8.68;2.60;;;;;;;6.69;60.27;97865.41;5030125;28;20045;-79
2022/02/07 03:45:20;;;;;;;4.38;2.47;;;;;;;6.67;60.25;97859.47;5030629;28;20049;-80
2022/02/07 03:47:48;;;;;;;3.88;2.35;;;;;;;6.65;60.30;97856.19;5029372;28;20060;-79
2022/02/07 03:50:15;;;;;;;6.35;3.17;;;;;;;6.69;60.27;97856.72;5028529;28;20052;-75
2022/02/07 03:52:42;;;;;;;4.13;2.10;;;;;;;6.73;60.24;97859.88;5030824;28;20587;-74
2022/02/07 03:55:10;;;;;;;6.82;3.13;;;;;;;6.76;60.24;97851.72;5029668;28;20124;-74
2022/02/07 03:57:37;;;;;;;4.35;2.78;;;;;;;6.75;60.11;97840.38;5029825;28;20105;-76
2022/02/07 04:00:08;;;;;;;6.50;2.85;;;;;;;6.73;60.14;97842.31;5029035;28;20056;-76
2022/02/07 04:02:41;;;;;;;4.07;3.58;;;;;;;6.72;60.24;97845.94;5029624;28;20077;-72
2022/02/07 04:05:33;;;;;;;4.57;3.72;;;;;;;6.76;60.19;97841.22;5029467;28;20111;-77
2022/02/07 04:08:00;;;;;;;7.28;3.25;;;;;;;6.81;59.89;97844.25;5029362;28;20052;-77
2022/02/07 04:10:32;;;;;;;5.63;3.00;;;;;;;6.82;60.06;97843.25;5029442;28;20045;-78
2022/02/07 04:13:02;;;;;;;5.72;2.78;;;;;;;6.87;59.97;97846.25;5028553;28;20419;-76
2022/02/07 04:15:30;;;;;;;3.50;2.65;;;;;;;6.91;59.92;97845.00;5028562;28;20197;-74
2022/02/07 04:18:02;;;;;;;8.57;3.35;;;;;;;6.96;59.87;97845.38;5029568;28;20604;-78
2022/02/07 04:20:29;;;;;;;13.57;4.25;;;;;;;7.01;59.83;97847.56;5029339;28;20049;-72
2022/02/07 04:22:56;;;;;;;8.27;3.20;;;;;;;7.06;59.76;97848.78;5030916;28;20128;-76
2022/02/07 04:25:25;;;;;;;9.23;4.18;;;;;;;7.03;59.81;97849.06;5029283;28;20421;-76
2022/02/07 04:27:54;;;;;;;6.05;2.80;;;;;;;7.01;59.83;97850.19;5030558;28;20440;-76
2022/02/07 04:30:21;;;;;;;9.90;3.90;;;;;;;7.01;59.81;97844.94;5029908;28;20049;-74
2022/02/07 04:32:48;;;;;;;8.52;3.60;;;;;;;6.95;59.95;97856.88;5029157;28;20145;-74
2022/02/07 04:35:17;;;;;;;8.20;3.75;;;;;;;6.91;60.06;97865.16;5030042;28;20057;-73
2022/02/07 04:37:46;;;;;;;7.63;4.13;;;;;;;6.81;60.03;97862.59;5029151;28;20130;-78
2022/02/07 04:40:14;;;;;;;14.73;4.45;;;;;;;6.72;60.63;97861.69;5030139;28;20142;-78
2022/02/07 04:42:43;;;;;;;7.18;4.15;;;;;;;6.67;60.59;97856.84;5029228;28;20099;-73
2022/02/07 04:45:30;;;;;;;12.85;6.07;;;;;;;6.70;60.56;97863.63;5030908;28;20053;-76
2022/02/07 04:48:17;;;;;;;3.83;2.53;;;;;;;6.70;60.64;97855.75;5030582;28;20049;-78
2022/02/07 04:51:04;;;;;;;6.18;3.15;;;;;;;6.72;60.67;97871.31;5030213;28;20092;-78
2022/02/07 04:53:50;;;;;;;8.80;3.58;;;;;;;6.71;60.64;97865.25;5028445;28;20057;-73
2022/02/07 04:57:00;;;;;;;6.60;3.10;;;;;;;6.66;60.74;97860.47;5028224;28;20068;-76
2022/02/07 04:59:09;;;;;;;5.43;3.10;;;;;;;6.60;60.98;97866.28;5032104;28;20452;-75
2022/02/07 05:01:46;;;;;;;8.48;3.40;;;;;;;6.60;61.02;97865.47;5031600;28;20117;-76
2022/02/07 05:04:24;;;;;;;7.68;3.35;;;;;;;6.61;61.07;97875.81;5028415;28;20053;-77
2022/02/07 05:15:19;;;;;;;6.63;3.65;;;;;;;6.30;61.80;97876.06;4973992;28;20081;-76
2022/02/07 05:17:47;;;;;;;4.38;3.15;;;;;;;6.23;62.00;97880.22;4986438;28;20122;-79
2022/02/07 05:20:14;;;;;;;7.80;3.20;;;;;;;6.15;62.03;97881.88;4984201;28;20105;-76
2022/02/07 05:22:42;;;;;;;7.55;3.47;;;;;;;6.07;62.21;97866.88;4985410;28;20057;-73
2022/02/07 05:25:10;;;;;;;9.00;3.38;;;;;;;6.07;62.28;97878.19;4985939;28;20828;-73
2022/02/07 05:27:37;;;;;;;6.47;3.15;;;;;;;6.07;62.11;97872.94;4985071;28;20054;-70
2022/02/07 05:30:06;;;;;;;8.18;3.55;;;;;;;6.04;62.18;97877.63;4988764;28;20058;-71
2022/02/07 05:32:33;;;;;;;10.73;5.35;;;;;;;6.07;62.27;97874.75;4920312;28;20047;-73
2022/02/07 05:35:00;;;;;;;8.38;3.90;;;;;;;6.06;62.19;97875.69;4983903;28;20132;-76
2022/02/07 05:37:28;;;;;;;11.40;5.60;;;;;;;6.09;62.30;97881.47;4985609;28;20109;-73
2022/02/07 05:40:05;;;;;;;12.10;5.53;;;;;;;6.11;62.20;97882.16;4985076;28;20050;-74
2022/02/07 05:42:34;;;;;;;14.00;6.15;;;;;;;6.14;62.19;97886.31;4985688;28;20743;-78
2022/02/07 05:45:01;;;;;;;9.73;5.28;;;;;;;6.12;62.17;97881.22;5023748;28;20528;-74
2022/02/07 05:47:29;;;;;;;7.90;4.60;;;;;;;6.10;62.31;97887.53;5026296;28;20485;-74
2022/02/07 05:49:55;;;;;;;11.07;3.83;;;;;;;6.09;62.41;97889.34;5029341;28;20073;-73
2022/02/07 05:52:22;;;;;;;9.15;4.22;;;;;;;6.07;62.57;97882.59;5029903;28;20053;-72
2022/02/07 05:54:49;;;;;;;9.18;5.32;;;;;;;6.10;62.55;97887.53;5029477;28;20041;-73
2022/02/07 05:57:18;;;;;;;8.00;5.13;;;;;;;6.18;62.61;97892.09;5029093;28;20047;-70
2022/02/07 05:59:46;;;;;;;11.50;5.40;;;;;;;6.20;62.49;97898.03;5029851;28;20041;-74
2022/02/07 06:02:13;;;;;;;10.05;5.82;;;;;;;6.24;62.55;97905.44;5028361;28;20049;-72
2022/02/07 06:04:41;;;;;;;16.52;7.57;;;;;;;6.26;62.52;97918.41;5029194;28;20290;-77
2022/02/07 06:07:08;;;;;;;18.55;9.55;;;;;;;6.20;62.74;97911.94;5030562;28;20121;-77
2022/02/07 06:09:35;;;;;;;16.17;9.35;;;;;;;6.14;62.93;97917.75;4997095;28;20133;-76
2022/02/07 06:12:03;;;;;;;13.98;10.45;;;;;;;6.10;63.25;97914.59;5032233;28;20701;-78
2022/02/07 06:14:36;;;;;;;13.93;8.30;;;;;;;6.09;63.50;97923.41;5031396;28;20069;-77
2022/02/07 06:17:07;;;;;;;9.43;6.35;;;;;;;6.05;63.89;97926.44;4988378;28;20106;-80
2022/02/07 06:19:36;;;;;;;13.18;8.43;;;;;;;5.90;64.94;97934.69;4989015;28;20050;-74
2022/02/07 06:22:03;;;;;;;10.38;7.45;;;;;;;5.64;65.27;97938.84;4993158;28;20077;-83
2022/02/07 06:24:30;;;;;;;10.50;8.32;;;;;;;5.25;65.35;97931.75;4998857;28;20109;-72
2022/02/07 06:26:57;;;;;;;11.35;9.55;;;;;;;4.84;65.94;97956.28;4996965;28;20141;-78
2022/02/07 06:29:25;;;;;;;10.20;9.00;;;;;;;4.58;66.47;97972.41;4993244;28;20198;-76
2022/02/07 06:31:53;;;;;;;9.82;7.43;;;;;;;4.42;66.84;97972.84;4970721;28;20097;-80
2022/02/07 06:34:20;;;;;;;8.55;6.32;;;;;;;4.30;67.23;97981.72;4998101;28;20148;-78
2022/02/07 06:36:47;;;;;;;9.75;7.20;;;;;;;4.18;67.61;97994.03;5034190;28;20133;-71
2022/02/07 06:39:15;;;;;;;9.35;6.13;;;;;;;4.15;67.56;98007.34;5029795;28;20072;-76
2022/02/07 06:41:43;;;;;;;8.48;6.68;;;;;;;4.06;67.85;98003.69;5027915;28;20824;-78
2022/02/07 06:44:10;;;;;;;7.90;5.30;;;;;;;4.02;67.95;98013.56;5026717;28;20049;-76
2022/02/07 06:46:37;;;;;;;7.40;5.18;;;;;;;4.04;67.90;98030.91;5028488;28;20050;-75
2022/02/07 06:49:06;;;;;;;5.85;4.95;;;;;;;4.09;67.70;98049.63;5027045;28;20067;-77
2022/02/07 06:51:33;;;;;;;8.95;4.65;;;;;;;4.01;67.90;98050.25;5033306;28;20148;-76
2022/02/07 06:54:01;;;;;;;9.30;6.32;;;;;;;3.99;67.66;98058.19;5033472;28;20140;-73
2022/02/07 06:56:32;;;;;;;6.38;4.75;;;;;;;4.02;67.81;98070.22;5032844;28;20080;-77
2022/02/07 06:58:59;;;;;;;8.02;4.78;;;;;;;3.95;68.13;98061.19;5032638;28;20264;-77
2022/02/07 07:01:26;;;;;;;6.60;5.10;;;;;;;3.94;68.45;98069.97;5026613;28;20099;-75
2022/02/07 07:03:55;;;;;;;10.77;7.97;;;;;;;3.87;68.53;98066.19;5030146;28;20053;-77
2022/02/07 07:06:23;;;;;;;11.38;8.15;;;;;;;3.85;69.02;98071.53;5031180;28;20125;-77
2022/02/07 07:08:53;;;;;;;12.50;9.48;;;;;;;3.86;69.19;98077.63;5027677;28;20128;-76
2022/02/07 07:11:24;;;;;;;15.00;13.38;;;;;;;3.88;69.05;98097.41;5029561;28;20148;-76
2022/02/07 07:13:55;;;;;;;12.98;10.50;;;;;;;3.90;69.23;98100.72;5027178;28;20107;-73
2022/02/07 07:16:40;;;;;;;14.00;12.48;;;;;;;3.90;69.21;98103.34;5027921;28;20498;-82
2022/02/07 07:19:07;;;;;;;14.65;13.15;;;;;;;3.90;69.26;98111.19;5031677;28;20061;-78
2022/02/07 07:21:36;;;;;;;13.85;11.13;;;;;;;3.90;69.29;98112.97;5029868;28;20566;-75
2022/02/07 07:24:03;;;;;;;20.65;16.48;;;;;;;3.90;69.46;98116.41;5030177;28;20105;-71
2022/02/07 07:26:31;;;;;;;12.52;11.20;;;;;;;3.93;69.55;98128.41;5030277;28;20147;-79
2022/02/07 07:29:01;;;;;;;20.10;15.45;;;;;;;3.96;69.26;98134.22;5029423;28;20050;-71
2022/02/07 07:31:28;;;;;;;20.17;17.27;;;;;;;3.98;69.21;98140.16;5028652;28;20049;-76
2022/02/07 07:33:55;;;;;;;11.98;10.70;;;;;;;3.96;69.26;98154.25;5030325;28;20056;-76
2022/02/07 07:36:24;;;;;;;14.93;11.63;;;;;;;3.99;69.09;98157.47;5036350;28;20081;-78
2022/02/07 07:38:52;;;;;;;12.32;10.63;;;;;;;4.00;69.29;98158.31;5030710;28;20122;-75
2022/02/07 07:41:20;;;;;;;20.02;13.50;;;;;;;3.96;69.27;98173.41;5028819;28;20049;-77
2022/02/07 07:43:49;;;;;;;13.85;11.80;;;;;;;3.96;69.34;98180.38;5025637;28;20111;-78
2022/02/07 07:46:19;;;;;;;20.08;13.65;;;;;;;4.05;69.24;98199.72;5030278;28;20092;-72
2022/02/07 07:48:55;;;;;;;16.75;12.93;;;;;;;4.10;69.04;98195.78;5030308;28;20466;-79
2022/02/07 07:51:34;;;;;;;12.57;10.50;;;;;;;4.11;68.91;98200.09;5032754;28;20109;-74
2022/02/07 07:54:20;;;;;;;14.40;11.75;;;;;;;4.22;68.87;98209.69;5044811;28;20041;-75
2022/02/07 08:02:19;;;;;;;9.32;7.22;;;;;;;4.27;68.25;98212.78;5047762;28;20075;-75
2022/02/07 08:04:49;;;;;;;10.02;8.80;;;;;;;4.31;68.28;98224.63;5048749;28;20041;-76
2022/02/07 08:07:20;;;;;;;14.32;11.73;;;;;;;4.33;67.97;98229.75;5050952;28;20095;-75
2022/02/07 08:12:36;;;;;;;12.20;10.07;;;;;;;4.42;67.86;98259.56;5044333;28;20049;-79
2022/02/07 08:15:07;;;;;;;11.68;8.82;;;;;;;4.40;68.22;98257.06;5044851;28;20065;-71
2022/02/07 08:17:34;;;;;;;9.65;6.53;;;;;;;4.53;67.95;98269.97;5014286;28;20060;-77
2022/02/07 08:20:01;;;;;;;11.02;6.88;;;;;;;4.57;67.96;98284.47;5045684;28;20108;-72
2022/02/07 08:22:29;;;;;;;9.00;4.85;;;;;;;4.63;68.00;98273.53;5047329;28;20093;-78
2022/02/07 08:25:00;;;;;;;11.40;8.55;;;;;;;4.64;67.88;98269.94;5042168;28;20046;-74
2022/02/07 08:27:31;;;;;;;9.10;7.78;;;;;;;4.59;67.83;98241.56;5038920;28;20041;-72
2022/02/07 08:29:59;;;;;;;10.25;7.88;;;;;;;4.52;67.94;98284.84;5036993;28;20510;-81
2022/02/07 08:32:26;;;;;;;10.48;8.07;;;;;;;4.53;67.80;98286.50;5039071;28;20524;-74
2022/02/07 08:34:59;;;;;;;10.02;7.97;;;;;;;4.51;67.89;98287.56;5034340;28;20096;-76
2022/02/07 08:37:26;;;;;;;12.70;10.18;;;;;;;4.51;67.87;98301.47;5034731;28;20497;-83
2022/02/07 08:39:53;;;;;;;11.23;8.98;;;;;;;4.55;68.10;98296.84;5036167;28;20136;-78
2022/02/07 08:42:22;;;;;;;8.10;7.22;;;;;;;4.54;68.04;98290.78;5028925;28;20052;-78
2022/02/07 08:44:49;;;;;;;7.47;6.32;;;;;;;4.55;67.86;98299.44;5037170;28;20046;-75
2022/02/07 08:47:17;;;;;;;10.43;7.18;;;;;;;4.60;68.16;98305.97;5042317;28;20327;-80
2022/02/07 08:49:44;;;;;;;11.52;8.75;;;;;;;4.67;68.08;98308.13;5037394;28;20053;-74
2022/02/07 08:52:13;;;;;;;9.63;7.72;;;;;;;4.66;67.93;98314.28;5035997;28;20077;-82
2022/02/07 08:54:40;;;;;;;9.75;7.20;;;;;;;4.66;68.05;98320.34;5033100;28;20052;-80
2022/02/07 08:57:19;;;;;;;8.82;7.60;;;;;;;4.59;68.00;98324.38;5033047;28;20049;-77
2022/02/07 08:59:59;;;;;;;8.43;7.18;;;;;;;4.55;67.70;98329.03;5032101;28;20083;-76
2022/02/07 09:02:52;;;;;;;10.43;8.02;;;;;;;4.56;67.96;98335.94;5027613;28;20049;-75
2022/02/07 09:05:37;;;;;;;10.95;7.68;;;;;;;4.57;68.13;98344.59;5026174;28;20060;-82
2022/02/07 09:08:20;;;;;;;9.75;8.05;;;;;;;4.52;67.90;98339.75;5031063;28;20056;-76
2022/02/07 09:10:48;;;;;;;9.52;7.45;;;;;;;4.47;68.00;98346.28;5028746;28;20116;-77
2022/02/07 09:13:17;;;;;;;8.20;7.13;;;;;;;4.41;67.96;98371.09;5032278;28;20053;-75
2022/02/07 09:15:54;;;;;;;8.57;6.53;;;;;;;4.39;68.20;98371.25;4995410;28;20061;-77
2022/02/07 09:18:22;;;;;;;7.85;6.10;;;;;;;4.39;68.23;98373.84;5030711;28;20049;-76
2022/02/07 09:20:50;;;;;;;8.95;7.13;;;;;;;4.36;68.51;98381.94;5033366;28;20125;-73
2022/02/07 09:23:17;;;;;;;7.45;6.55;;;;;;;4.37;68.18;98383.56;5033751;28;20317;-77
2022/02/07 09:25:44;;;;;;;7.47;5.63;;;;;;;4.33;68.15;98392.59;5027574;28;20117;-76
2022/02/07 09:28:11;;;;;;;8.20;6.00;;;;;;;4.30;67.95;98386.78;5027595;28;20085;-78
2022/02/07 09:30:38;;;;;;;8.70;6.43;;;;;;;4.21;68.08;98402.22;5024637;28;20531;-77
2022/02/07 09:33:08;;;;;;;7.55;6.75;;;;;;;4.17;67.89;98415.63;5026005;28;20129;-76
2022/02/07 09:35:35;;;;;;;6.43;5.25;;;;;;;4.03;68.25;98424.50;5024439;28;20049;-75
2022/02/07 09:38:03;;;;;;;7.25;5.55;;;;;;;4.02;68.43;98430.69;5022311;28;20049;-71
2022/02/07 09:40:30;;;;;;;10.07;7.00;;;;;;;3.93;68.13;98426.97;5018002;28;20103;-73
2022/02/07 09:42:59;;;;;;;7.55;6.13;;;;;;;3.87;68.69;98445.72;5019292;28;20077;-75
2022/02/07 09:45:32;;;;;;;7.28;6.57;;;;;;;3.87;68.52;98439.66;5026636;28;20077;-77
2022/02/07 09:48:00;;;;;;;9.27;8.25;;;;;;;3.78;68.31;98447.22;5025979;28;20046;-80
2022/02/07 09:50:29;;;;;;;10.30;8.35;;;;;;;3.74;68.35;98452.78;5023820;28;20073;-77
2022/02/07 09:52:56;;;;;;;11.25;10.10;;;;;;;3.56;67.97;98445.34;5023655;28;20453;-78
2022/02/07 09:55:27;;;;;;;12.43;9.75;;;;;;;3.46;68.72;98452.19;5023195;28;20105;-76
2022/02/07 09:57:55;;;;;;;9.45;8.55;;;;;;;3.36;68.77;98453.78;5029636;28;20137;-73
2022/02/07 10:00:28;;;;;;;8.98;7.95;;;;;;;3.31;69.00;98467.13;5023113;28;20041;-78
2022/02/07 10:03:04;;;;;;;13.30;10.10;;;;;;;3.21;68.90;98466.97;5020271;28;20072;-71
2022/02/07 10:05:44;;;;;;;10.43;9.30;;;;;;;3.04;69.31;98470.78;5022186;28;20076;-74
2022/02/07 10:08:17;;;;;;;14.40;12.73;;;;;;;2.97;69.48;98472.16;5026756;28;20053;-71
2022/02/07 10:11:03;;;;;;;15.40;12.50;;;;;;;2.86;70.06;98504.19;5024978;28;20055;-72
2022/02/07 10:13:41;;;;;;;15.50;13.80;;;;;;;2.89;69.80;98478.84;5022026;28;20053;-70
2022/02/07 10:16:25;;;;;;;9.43;8.43;;;;;;;2.90;70.00;98490.91;5024943;28;20057;-72
2022/02/07 10:19:03;;;;;;;0.50;0.35;;;;;;;2.98;69.57;98506.88;5028118;28;20049;-76
2022/02/07 10:22:01;;;;;;;19.98;12.00;;;;;;;2.89;70.10;98515.34;5023811;28;20045;-76
2022/02/07 10:36:18;;;;;;;0.13;0.13;;;;;;;3.13;69.52;98564.97;5009795;28;20057;-80
2022/02/07 10:38:59;;;;;;;0.10;0.10;;;;;;;3.22;69.54;98565.19;5011652;28;20504;-78
2022/02/07 10:41:42;;;;;;;0.15;0.15;;;;;;;3.28;69.34;98561.31;5008417;28;20046;-70
2022/02/07 10:44:43;;;;;;;0.47;0.47;;;;;;;3.33;69.34;98585.31;5010824;28;20049;-75
2022/02/07 10:47:16;;;;;;;0.35;0.35;;;;;;;3.35;69.23;98601.69;5016519;28;20073;-73
2022/02/07 10:50:00;;;;;;;0.20;0.20;;;;;;;3.39;69.12;98597.94;5018783;28;20053;-77
2022/02/07 10:52:27;;;;;;;0.30;0.30;;;;;;;3.43;68.94;98596.75;5018951;28;20072;-75
2022/02/07 10:54:56;;;;;;;0.13;0.13;;;;;;;3.49;69.17;98603.31;5021289;28;20045;-72
2022/02/07 10:57:23;;;;;;;0.10;0.10;;;;;;;3.53;68.80;98602.19;5021638;28;20053;-76
2022/02/07 10:59:52;;;;;;;0.10;0.10;;;;;;;3.56;68.91;98612.41;5011781;28;20235;-82
2022/02/07 11:02:49;;;;;;;0.43;0.32;;;;;;;3.63;68.85;98615.44;5008685;28;20053;-76
2022/02/07 11:05:19;;;;;;;0.10;0.10;;;;;;;3.67;68.69;98621.28;5027135;28;20045;-72
2022/02/07 11:07:51;;;;;;;0.10;0.10;;;;;;;3.71;68.90;98609.66;5032247;28;20083;-82
2022/02/07 11:10:28;;;;;;;0.22;0.22;;;;;;;3.82;68.69;98625.41;5031952;28;20049;-73
2022/02/07 11:15:46;;;;;;;0.10;0.10;;;;;;;3.93;68.26;98642.94;5031820;28;20141;-74
2022/02/07 11:18:27;;;;;;;7.18;3.63;;;;;;;3.98;68.34;98649.50;5028780;28;20136;-77
2022/02/07 11:21:16;;;;;;;0.10;0.10;;;;;;;4.05;68.21;98669.97;5028585;28;20257;-79
2022/02/07 11:23:54;;;;;;;0.20;0.20;;;;;;;4.14;67.92;98658.84;5028759;28;20048;-76
2022/02/07 11:26:33;;;;;;;0.10;0.10;;;;;;;4.17;67.85;98654.25;5026388;28;20037;-83
2022/02/07 11:29:01;;;;;;;0.10;0.10;;;;;;;4.25;67.82;98673.75;5034839;28;20041;-80
2022/02/07 11:31:40;;;;;;;0.10;0.10;;;;;;;4.31;67.66;98689.03;5029720;28;20080;-82
2022/02/07 11:34:14;;;;;;;0.10;0.10;;;;;;;4.39;67.41;98671.84;5026974;28;20458;-78
2022/02/07 11:36:43;;;;;;;0.73;0.73;;;;;;;4.45;67.33;98675.78;5026009;28;20052;-76
2022/02/07 11:39:13;;;;;;;0.20;0.20;;;;;;;4.48;67.36;98685.19;5029200;28;20578;-76
2022/02/07 11:42:05;;;;;;;0.10;0.10;;;;;;;4.51;67.43;98698.03;5032156;28;20073;-75
2022/02/07 11:45:22;;;;;;;0.10;0.10;;;;;;;4.56;67.27;98707.22;5027275;28;20120;-78
2022/02/07 11:47:50;;;;;;;0.08;0.08;;;;;;;4.66;67.10;98706.53;5024904;28;20064;-75
2022/02/07 11:50:22;;;;;;;0.40;0.40;;;;;;;4.65;66.94;98725.81;5030331;28;20145;-79
2022/02/07 11:52:54;;;;;;;0.10;0.10;;;;;;;4.67;67.02;98719.50;5029037;28;20056;-76
2022/02/07 11:55:24;;;;;;;0.25;0.25;;;;;;;4.75;66.70;98742.47;5029976;28;20046;-77
2022/02/07 11:58:02;;;;;;;0.68;0.68;;;;;;;4.82;66.90;98733.25;5028489;28;20516;-78
2022/02/07 12:00:32;;;;;;;0.40;0.30;;;;;;;4.92;66.40;98746.50;5031008;28;20190;-76
2022/02/07 12:03:05;;;;;;;0.10;0.10;;;;;;;4.98;66.42;98752.09;5029954;28;20230;-82
2022/02/07 12:05:33;;;;;;;0.40;0.40;;;;;;;5.05;66.02;98749.88;5035647;28;20048;-73
2022/02/07 12:08:04;;;;;;;0.30;0.30;;;;;;;5.14;66.18;98759.66;5028513;28;20048;-84
2022/02/07 12:10:41;;;;;;;2.47;2.38;;;;;;;5.21;65.93;98767.06;5026693;28;20048;-80
2022/02/07 12:13:41;;;;;;;0.10;0.10;;;;;;;5.42;66.20;98767.22;5024603;28;20053;-72
2022/02/07 12:16:14;;;;;;;1.13;1.13;;;;;;;5.53;65.31;98775.97;4967169;28;20055;-79
2022/02/07 12:18:42;;;;;;;0.10;0.10;;;;;;;5.57;65.00;98781.81;4963768;28;20054;-81
2022/02/07 12:21:25;;;;;;;0.10;0.10;;;;;;;5.66;65.09;98772.41;4966218;28;20121;-76
2022/02/07 12:23:57;;;;;;;0.10;0.10;;;;;;;5.81;64.66;98776.47;4964127;28;20058;-72
2022/02/07 12:26:24;;;;;;;0.10;0.10;;;;;;;5.97;64.28;98789.28;4966879;28;20190;-71
2022/02/07 12:28:58;;;;;;;0.10;0.10;;;;;;;6.12;63.66;98780.25;4965474;28;20102;-77
2022/02/07 12:31:28;;;;;;;0.22;0.22;;;;;;;6.13;63.10;98799.41;4965180;28;20100;-77
2022/02/07 12:33:57;;;;;;;0.10;0.10;;;;;;;6.06;62.81;98808.69;4967573;28;20776;-76
2022/02/07 12:36:26;;;;;;;0.22;0.22;;;;;;;6.16;63.04;98807.06;4964756;28;20126;-75
2022/02/07 12:38:54;;;;;;;0.45;0.45;;;;;;;6.17;62.42;98813.94;4965325;28;20241;-76
2022/02/07 12:41:23;;;;;;;0.25;0.25;;;;;;;6.18;62.14;98810.38;4966783;28;20130;-74
2022/02/07 12:43:51;;;;;;;0.10;0.10;;;;;;;6.17;61.82;98792.97;4968466;28;20146;-77
2022/02/07 12:46:22;;;;;;;0.32;0.32;;;;;;;6.05;63.04;98807.03;4962107;28;20745;-77
2022/02/07 12:48:54;;;;;;;0.10;0.10;;;;;;;6.07;61.75;98816.44;4950605;28;20057;-75
2022/02/07 12:51:23;;;;;;;2.05;1.23;;;;;;;6.05;61.44;98817.50;5023151;28;20084;-74
2022/02/07 12:53:52;;;;;;;0.10;0.10;;;;;;;6.04;61.65;98836.81;5033444;28;20223;-72
2022/02/07 12:56:19;;;;;;;1.55;0.40;;;;;;;6.10;61.23;98834.56;5032474;28;20045;-75
2022/02/07 12:58:47;;;;;;;0.10;0.10;;;;;;;6.09;61.25;98840.75;5024467;28;20081;-77
2022/02/07 13:01:23;;;;;;;0.10;0.10;;;;;;;6.13;61.37;98838.72;5031211;28;20046;-76
2022/02/07 13:03:52;;;;;;;0.10;0.10;;;;;;;6.12;60.88;98843.16;5032807;28;20101;-72
2022/02/07 13:06:30;;;;;;;0.10;0.10;;;;;;;6.04;61.16;98842.06;5032929;28;20037;-71
2022/02/07 13:09:01;;;;;;;2.58;2.38;;;;;;;6.04;61.31;98849.94;5033437;28;20053;-77
2022/02/07 13:11:32;;;;;;;0.10;0.10;;;;;;;6.03;61.04;98848.25;5038550;28;20033;-74
2022/02/07 13:14:00;;;;;;;0.20;0.20;;;;;;;6.08;60.98;98857.41;5036675;28;20068;-77
2022/02/07 13:16:33;;;;;;;3.53;3.30;;;;;;;6.12;60.56;98864.13;5036595;28;20072;-75
2022/02/07 13:19:13;;;;;;;0.10;0.10;;;;;;;6.13;60.65;98863.16;5041365;28;20335;-77
2022/02/07 13:21:42;;;;;;;0.20;0.20;;;;;;;6.16;60.58;98867.34;5037510;28;20073;-76
2022/02/07 13:24:13;;;;;;;0.10;0.10;;;;;;;6.20;60.36;98870.56;5034138;28;20544;-80
2022/02/07 13:26:45;;;;;;;0.10;0.10;;;;;;;6.23;60.24;98873.78;4997413;28;20140;-79
2022/02/07 13:29:17;;;;;;;0.10;0.10;;;;;;;6.20;60.47;98884.50;5035236;28;20041;-79
2022/02/07 13:31:52;;;;;;;0.10;0.10;;;;;;;6.25;59.69;98892.03;5036985;28;20064;-74
2022/02/07 13:34:23;;;;;;;0.57;0.57;;;;;;;6.27;60.09;98909.31;5028085;28;20472;-77